Time;durP1;ratioP1;P1;durP2;ratioP2;P2;SDS_P1;SDS_P2;PMS_P1;PMS_P2;Temp;Humidity;BMP_temperature;BMP_pressure;BME280_temperature;BME280_humidity;BME280_pressure;Samples;Min_cycle;Max_cycle;Signal;HPM_P1;HPM_P2
2022/08/26 00:00:06;;;;;;;9.60;9.30;;;21.10;99.90;;;;;;6241159;23;20207;-80
2022/08/26 00:02:36;;;;;;;9.70;9.40;;;21.10;99.90;;;;;;6234351;22;20210;-82
2022/08/26 00:07:52;;;;;;;9.80;9.50;;;21.00;99.90;;;;;;6241761;23;20199;-80
2022/08/26 00:10:22;;;;;;;9.70;9.40;;;20.90;99.90;;;;;;6244596;23;20194;-80
2022/08/26 00:12:51;;;;;;;9.55;9.25;;;20.90;99.90;;;;;;6247186;22;20213;-80
2022/08/26 00:15:22;;;;;;;9.90;9.60;;;20.90;99.90;;;;;;6247080;23;20195;-80
2022/08/26 00:17:51;;;;;;;9.77;9.48;;;20.80;99.90;;;;;;6249773;22;20201;-81
2022/08/26 00:20:29;;;;;;;9.68;9.38;;;20.70;99.90;;;;;;6249994;22;20187;-80
2022/08/26 00:22:58;;;;;;;9.80;9.50;;;20.70;99.90;;;;;;6249436;22;20210;-80
2022/08/26 00:25:28;;;;;;;9.80;9.50;;;20.70;99.90;;;;;;6248911;22;20207;-81
2022/08/26 00:27:56;;;;;;;9.60;9.30;;;20.60;99.90;;;;;;6249068;22;20203;-81
2022/08/26 00:30:28;;;;;;;9.82;9.52;;;20.60;99.90;;;;;;6249208;23;20199;-80
2022/08/26 00:32:56;;;;;;;9.93;9.63;;;20.50;99.90;;;;;;6245023;22;20198;-79
2022/08/26 00:35:39;;;;;;;9.77;9.48;;;20.50;99.90;;;;;;6242917;23;20203;-81
2022/08/26 00:38:07;;;;;;;10.00;9.70;;;20.50;99.90;;;;;;6243790;23;20214;-82
2022/08/26 00:40:44;;;;;;;9.85;9.55;;;20.40;99.90;;;;;;6242692;23;20202;-80
2022/08/26 00:43:12;;;;;;;9.75;9.45;;;20.40;99.90;;;;;;6240694;23;20210;-80
2022/08/26 00:45:45;;;;;;;9.90;9.60;;;20.30;99.90;;;;;;6232493;23;20237;-82
2022/08/26 00:48:14;;;;;;;9.88;9.57;;;20.30;99.90;;;;;;6230168;23;20223;-81
2022/08/26 00:50:50;;;;;;;10.00;9.70;;;20.20;99.90;;;;;;6230051;23;20206;-80
2022/08/26 00:53:22;;;;;;;9.90;9.60;;;20.10;99.90;;;;;;6229249;22;20281;-81
2022/08/26 00:55:57;;;;;;;9.80;9.50;;;20.10;99.90;;;;;;6229356;23;20199;-80
2022/08/26 00:58:28;;;;;;;9.50;9.20;;;20.10;99.90;;;;;;6230012;23;20198;-81
2022/08/26 01:00:56;;;;;;;9.68;9.38;;;20.00;99.90;;;;;;6229455;23;20191;-81
2022/08/26 01:03:27;;;;;;;9.75;9.45;;;20.00;99.90;;;;;;6229607;22;20215;-81
2022/08/26 01:08:42;;;;;;;10.00;9.70;;;19.90;99.90;;;;;;6229105;23;20206;-81
2022/08/26 01:11:11;;;;;;;9.93;9.63;;;20.00;99.90;;;;;;6229672;22;20222;-80
2022/08/26 01:13:42;;;;;;;9.98;9.68;;;19.90;99.90;;;;;;6230656;23;20191;-79
2022/08/26 01:16:19;;;;;;;10.05;9.75;;;19.80;99.90;;;;;;6229657;23;20271;-80
2022/08/26 01:18:48;;;;;;;10.10;9.80;;;19.70;99.90;;;;;;6229918;23;20249;-80
2022/08/26 01:21:29;;;;;;;10.10;9.80;;;19.60;99.90;;;;;;6228984;22;20202;-80
2022/08/26 01:24:00;;;;;;;10.10;9.80;;;19.60;99.90;;;;;;6229467;23;20271;-81
2022/08/26 01:26:35;;;;;;;10.00;9.70;;;19.60;99.90;;;;;;6237753;23;20194;-81
2022/08/26 01:29:05;;;;;;;10.07;9.77;;;19.70;99.90;;;;;;6248107;23;20181;-80
2022/08/26 01:31:41;;;;;;;10.00;9.70;;;19.70;99.90;;;;;;6246210;22;20195;-80
2022/08/26 01:34:21;;;;;;;9.95;9.65;;;19.60;99.90;;;;;;6234140;23;20199;-80
2022/08/26 01:36:50;;;;;;;9.90;9.60;;;19.60;99.90;;;;;;6232570;23;20195;-80
2022/08/26 01:39:25;;;;;;;10.13;9.82;;;19.60;99.90;;;;;;6231981;23;20198;-79
2022/08/26 01:41:57;;;;;;;9.82;9.52;;;19.60;99.90;;;;;;6231033;22;20221;-80
2022/08/26 01:44:30;;;;;;;9.90;9.60;;;19.60;99.90;;;;;;6230138;23;20190;-80
2022/08/26 01:47:00;;;;;;;9.80;9.50;;;19.50;99.90;;;;;;6230706;23;20195;-80
2022/08/26 01:49:28;;;;;;;9.90;9.60;;;19.50;99.90;;;;;;6231074;23;20198;-79
2022/08/26 01:51:58;;;;;;;9.80;9.50;;;19.50;99.90;;;;;;6230325;22;20209;-80
2022/08/26 01:54:28;;;;;;;9.90;9.60;;;19.50;99.90;;;;;;6230396;23;20199;-80
2022/08/26 01:56:55;;;;;;;9.60;9.30;;;19.40;99.90;;;;;;6230389;23;20274;-80
2022/08/26 01:59:24;;;;;;;9.70;9.40;;;19.40;99.90;;;;;;6231378;23;20258;-80
2022/08/26 02:01:53;;;;;;;9.88;9.57;;;19.40;99.90;;;;;;6231791;22;20195;-80
2022/08/26 02:04:30;;;;;;;10.00;9.70;;;19.40;99.90;;;;;;6241515;23;20195;-81
2022/08/26 02:07:02;;;;;;;9.70;9.40;;;19.40;99.90;;;;;;6233482;23;20321;-81
2022/08/26 02:09:33;;;;;;;10.30;10.00;;;19.30;99.90;;;;;;6233955;23;20191;-80
2022/08/26 02:12:02;;;;;;;9.90;9.60;;;19.30;99.90;;;;;;6231948;22;20225;-79
2022/08/26 02:14:39;;;;;;;10.00;9.70;;;19.20;99.90;;;;;;6230781;23;20215;-80
2022/08/26 02:17:08;;;;;;;9.88;9.57;;;19.10;99.90;;;;;;6230339;23;20191;-79
2022/08/26 02:19:45;;;;;;;10.20;9.90;;;18.90;99.90;;;;;;6230914;23;20205;-81
2022/08/26 02:22:26;;;;;;;10.20;9.90;;;18.70;99.90;;;;;;6230345;23;20199;-80
2022/08/26 02:25:01;;;;;;;10.00;9.70;;;18.70;99.90;;;;;;6229583;23;20293;-81
2022/08/26 02:27:33;;;;;;;10.02;9.73;;;18.60;99.90;;;;;;6230292;23;20199;-80
2022/08/26 02:30:10;;;;;;;10.00;9.70;;;18.50;99.90;;;;;;6230957;23;20206;-80
2022/08/26 02:32:38;;;;;;;10.05;9.75;;;18.50;99.90;;;;;;6231818;22;20222;-80
2022/08/26 02:35:10;;;;;;;10.10;9.80;;;18.50;99.90;;;;;;6230072;23;20242;-81
2022/08/26 02:37:40;;;;;;;10.07;9.77;;;18.50;99.90;;;;;;6238825;23;20198;-81
2022/08/26 02:40:20;;;;;;;10.20;9.90;;;18.60;99.90;;;;;;6238821;23;20206;-81
2022/08/26 02:42:50;;;;;;;9.85;9.55;;;18.60;99.90;;;;;;6234303;22;20205;-80
2022/08/26 02:45:18;;;;;;;9.68;9.38;;;18.60;99.90;;;;;;6232012;23;20273;-81
2022/08/26 02:47:46;;;;;;;9.80;9.50;;;18.60;99.90;;;;;;6231206;23;20191;-80
2022/08/26 02:50:15;;;;;;;9.40;9.10;;;18.50;99.90;;;;;;6230901;23;20255;-80
2022/08/26 02:53:05;;;;;;;10.15;9.85;;;18.50;99.90;;;;;;6230308;22;20282;-81
2022/08/26 02:55:41;;;;;;;9.82;9.52;;;18.50;99.90;;;;;;6229379;23;20274;-81
2022/08/26 02:58:10;;;;;;;9.85;9.55;;;18.50;99.90;;;;;;6229823;23;20186;-80
2022/08/26 03:00:39;;;;;;;10.10;9.80;;;18.50;99.90;;;;;;6228807;23;20275;-81
2022/08/26 03:03:09;;;;;;;9.63;9.32;;;18.50;99.90;;;;;;6228989;22;20230;-80
2022/08/26 03:05:39;;;;;;;9.80;9.50;;;18.50;99.90;;;;;;6228430;23;20211;-81
2022/08/26 03:08:10;;;;;;;9.40;9.10;;;18.50;99.90;;;;;;6229238;23;20198;-81
2022/08/26 03:10:40;;;;;;;9.35;9.05;;;18.50;99.90;;;;;;6228826;23;20196;-81
2022/08/26 03:13:08;;;;;;;9.30;9.00;;;18.50;99.90;;;;;;6228442;22;20253;-81
2022/08/26 03:15:37;;;;;;;9.40;9.10;;;18.50;99.90;;;;;;6228339;23;20241;-81
2022/08/26 03:18:06;;;;;;;9.40;9.10;;;18.50;99.90;;;;;;6228530;23;20229;-81
2022/08/26 03:20:35;;;;;;;9.48;9.18;;;18.60;99.90;;;;;;6228069;23;20203;-81
2022/08/26 03:23:06;;;;;;;9.65;9.35;;;18.50;99.90;;;;;;6228097;22;20265;-81
2022/08/26 03:25:34;;;;;;;9.52;9.23;;;18.60;99.90;;;;;;6227851;23;20689;-81
2022/08/26 03:28:14;;;;;;;9.90;9.60;;;18.50;99.90;;;;;;6228625;23;20199;-81
2022/08/26 03:30:40;;;;;;;9.65;9.35;;;18.50;99.90;;;;;;6230254;23;20206;-80
2022/08/26 03:33:12;;;;;;;9.60;9.30;;;18.50;99.90;;;;;;6229697;22;20205;-81
2022/08/26 03:35:42;;;;;;;9.93;9.63;;;18.50;99.90;;;;;;6228998;23;20187;-81
2022/08/26 03:38:11;;;;;;;9.68;9.38;;;18.50;99.90;;;;;;6229989;23;20199;-80
2022/08/26 03:40:41;;;;;;;9.57;9.27;;;18.50;99.90;;;;;;6229698;23;20202;-80
2022/08/26 03:43:18;;;;;;;9.52;9.23;;;18.50;99.90;;;;;;6229820;22;20700;-81
2022/08/26 03:45:47;;;;;;;9.80;9.50;;;18.40;99.90;;;;;;6230176;23;20202;-80
2022/08/26 03:48:17;;;;;;;9.93;9.63;;;18.50;99.90;;;;;;6229991;23;20195;-81
2022/08/26 03:50:46;;;;;;;9.60;9.30;;;18.40;99.90;;;;;;6229947;23;20218;-80
2022/08/26 03:53:16;;;;;;;9.80;9.50;;;18.40;99.90;;;;;;6230081;22;20203;-81
2022/08/26 03:55:46;;;;;;;9.68;9.38;;;18.40;99.90;;;;;;6229082;23;20207;-80
2022/08/26 03:58:24;;;;;;;9.70;9.40;;;18.40;99.90;;;;;;6230379;23;20191;-82
2022/08/26 04:00:53;;;;;;;9.55;9.25;;;18.30;99.90;;;;;;6229895;23;20199;-81
2022/08/26 04:03:56;;;;;;;10.20;9.90;;;18.40;99.90;;;;;;6230128;22;20254;-80
2022/08/26 04:06:10;;;;;;;10.23;9.93;;;18.40;99.90;;;;;;6229601;23;20207;-80
2022/08/26 04:08:39;;;;;;;10.30;10.00;;;18.40;99.90;;;;;;6230483;23;20252;-80
2022/08/26 04:11:08;;;;;;;10.48;10.18;;;18.30;99.90;;;;;;6230349;22;20533;-80
2022/08/26 04:13:47;;;;;;;10.32;10.02;;;18.30;99.90;;;;;;6230379;23;20195;-80
2022/08/26 04:16:17;;;;;;;10.52;10.23;;;18.30;99.90;;;;;;6229847;23;20226;-80
2022/08/26 04:18:45;;;;;;;10.70;10.40;;;18.30;99.90;;;;;;6230487;23;20270;-81
2022/08/26 04:21:14;;;;;;;10.80;10.50;;;18.20;99.90;;;;;;6231500;22;20251;-80
2022/08/26 04:23:44;;;;;;;11.10;10.70;;;18.10;99.90;;;;;;6240754;23;20247;-81
2022/08/26 04:26:13;;;;;;;10.90;10.60;;;18.10;99.90;;;;;;6246363;23;20203;-81
2022/08/26 04:28:51;;;;;;;10.63;10.32;;;18.00;99.90;;;;;;6247417;22;20207;-81
2022/08/26 04:31:21;;;;;;;10.50;10.20;;;18.00;99.90;;;;;;6248595;22;20206;-81
2022/08/26 04:33:55;;;;;;;10.35;10.05;;;18.00;99.90;;;;;;6249905;22;20213;-81
2022/08/26 04:36:23;;;;;;;10.18;9.88;;;18.00;99.90;;;;;;6248070;22;20179;-82
2022/08/26 04:38:51;;;;;;;9.95;9.65;;;18.00;99.90;;;;;;6249531;22;20179;-81
2022/08/26 04:41:20;;;;;;;10.40;10.10;;;18.00;99.90;;;;;;6249936;22;20195;-81
2022/08/26 04:43:51;;;;;;;10.23;9.93;;;18.00;99.90;;;;;;6250681;22;20250;-81
2022/08/26 04:46:21;;;;;;;10.18;9.88;;;18.00;99.90;;;;;;6249922;22;20198;-82
2022/08/26 04:48:50;;;;;;;10.15;9.85;;;18.00;99.90;;;;;;6249604;22;20226;-81
2022/08/26 04:51:18;;;;;;;10.18;9.88;;;18.00;99.90;;;;;;6247122;22;20242;-79
2022/08/26 04:53:48;;;;;;;10.40;10.10;;;18.00;99.90;;;;;;6248705;23;20189;-80
2022/08/26 04:56:17;;;;;;;10.60;10.30;;;18.00;99.90;;;;;;6248682;22;20206;-81
2022/08/26 04:58:47;;;;;;;10.27;9.98;;;18.00;99.90;;;;;;6245116;23;20191;-79
2022/08/26 05:01:25;;;;;;;10.50;10.20;;;18.00;99.90;;;;;;6246954;22;20230;-81
2022/08/26 05:03:55;;;;;;;10.32;10.02;;;18.00;99.90;;;;;;6236522;23;20191;-80
2022/08/26 05:06:24;;;;;;;10.40;10.10;;;18.00;99.90;;;;;;6234346;23;20246;-79
2022/08/26 05:08:53;;;;;;;10.38;10.07;;;18.00;99.90;;;;;;6238193;23;20198;-81
2022/08/26 05:24:36;;;;;;;10.18;9.88;;;18.10;99.90;;;;;;6229121;23;20198;-84
2022/08/26 05:31:03;;;;;;;10.13;9.82;;;18.20;99.90;;;;;;6212042;22;20198;-84
2022/08/26 05:40:44;;;;;;;9.90;9.60;;;18.40;99.90;;;;;;6217510;22;20202;-84
2022/08/26 05:58:41;;;;;;;9.70;9.40;;;19.10;99.90;;;;;;5122204;27;20243;-84
2022/08/26 06:04:27;;;;;;;9.77;9.48;;;19.40;99.90;;;;;;5076502;28;20226;-84
2022/08/26 06:10:47;;;;;;;9.80;9.50;;;19.70;99.90;;;;;;5159157;27;20229;-85
2022/08/26 06:17:28;;;;;;;9.90;9.60;;;20.00;99.90;;;;;;5156567;27;20227;-84
2022/08/26 07:39:52;;;;;;;10.70;10.40;;;23.60;99.90;;;;;;5099815;28;20286;-85
2022/08/26 07:57:25;;;;;;;10.40;10.10;;;24.20;99.90;;;;;;5128810;27;20240;-85
2022/08/26 08:07:51;;;;;;;10.07;9.77;;;24.60;99.90;;;;;;4883430;29;20244;-84
2022/08/26 08:28:21;;;;;;;11.57;11.18;;;25.50;99.90;;;;;;4980120;28;20232;-84
2022/08/26 08:56:47;;;;;;;11.32;11.02;;;28.00;99.90;;;;;;5100430;28;20234;-84
2022/08/26 09:00:23;;;;;;;;;;;;;;;;;;;;;
2022/08/26 09:02:58;;;;;;;11.10;10.80;;;28.60;99.90;;;;;;5069394;28;20238;-84
2022/08/26 09:12:23;;;;;;;11.40;11.10;;;28.40;99.90;;;;;;5079106;28;20218;-85
2022/08/26 09:33:34;;;;;;;11.30;11.00;;;29.50;99.90;;;;;;5078493;28;20230;-85
2022/08/26 09:36:39;;;;;;;11.32;11.02;;;29.40;99.90;;;;;;5048435;28;20303;-85
2022/08/26 10:06:39;;;;;;;11.30;11.00;;;30.70;99.90;;;;;;4936724;29;20351;-85
2022/08/26 10:14:16;;;;;;;11.18;10.88;;;31.20;99.90;;;;;;4956273;28;20240;-84
2022/08/26 10:20:38;;;;;;;11.60;11.30;;;31.60;99.90;;;;;;4913713;28;20319;-85
2022/08/26 10:23:50;;;;;;;11.35;11.05;;;31.70;99.90;;;;;;4996069;28;20308;-85
2022/08/26 10:29:43;;;;;;;11.35;11.05;;;31.80;99.90;;;;;;5015833;28;20224;-85
2022/08/26 10:32:46;;;;;;;11.43;11.13;;;32.20;99.90;;;;;;5074895;28;20268;-85
2022/08/26 11:16:10;;;;;;;11.40;11.10;;;33.20;99.90;;;;;;5043890;27;3868397;-81
2022/08/26 11:18:47;;;;;;;11.50;11.20;;;34.60;99.90;;;;;;5160353;27;20227;-82
2022/08/26 11:22:04;;;;;;;11.02;10.73;;;34.80;99.90;;;;;;5159746;27;20238;-82
2022/08/26 11:25:04;;;;;;;11.85;11.45;;;35.10;99.90;;;;;;5138095;27;20236;-81
2022/08/26 11:28:00;;;;;;;11.90;11.50;;;35.10;99.90;;;;;;5138748;27;20293;-82
2022/08/26 11:30:45;;;;;;;12.20;11.80;;;35.10;99.90;;;;;;5139087;27;20299;-80
2022/08/26 11:34:01;;;;;;;12.02;11.63;;;35.20;99.90;;;;;;5139495;27;20224;-81
2022/08/26 11:36:57;;;;;;;11.98;11.57;;;35.10;99.90;;;;;;5156519;27;20208;-80
2022/08/26 11:39:33;;;;;;;11.65;11.32;;;34.80;99.90;;;;;;5155976;27;20233;-80
2022/08/26 11:42:15;;;;;;;12.02;11.63;;;34.70;99.90;;;;;;5154703;27;20259;-81
2022/08/26 11:44:44;;;;;;;11.90;11.50;;;34.70;99.90;;;;;;5141787;27;20231;-82
2022/08/26 11:47:20;;;;;;;11.77;11.40;;;34.70;99.90;;;;;;5140304;27;20216;-81
2022/08/26 11:49:50;;;;;;;12.00;11.60;;;34.50;99.90;;;;;;5140150;27;20232;-80
2022/08/26 11:52:22;;;;;;;11.93;11.52;;;34.60;99.90;;;;;;5140982;27;20319;-80
2022/08/26 11:55:06;;;;;;;12.10;11.70;;;34.60;99.90;;;;;;5140431;27;20292;-81
2022/08/26 11:57:44;;;;;;;12.00;11.60;;;34.40;99.90;;;;;;5141786;27;20220;-80
2022/08/26 12:00:24;;;;;;;11.82;11.43;;;34.20;99.90;;;;;;5146205;27;20262;-81
2022/08/26 12:03:01;;;;;;;11.95;11.55;;;33.80;99.90;;;;;;5150203;27;20263;-81
2022/08/26 12:05:32;;;;;;;11.80;11.40;;;33.90;99.90;;;;;;5153664;27;20279;-81
2022/08/26 12:08:08;;;;;;;11.88;11.48;;;33.70;99.90;;;;;;5154029;27;20227;-81
2022/08/26 12:10:38;;;;;;;11.90;11.50;;;33.60;99.90;;;;;;5152988;27;20288;-81
2022/08/26 12:13:08;;;;;;;12.00;11.60;;;33.70;99.90;;;;;;5152818;27;20287;-81
2022/08/26 12:15:37;;;;;;;11.60;11.30;;;33.50;99.90;;;;;;5142093;27;20252;-80
2022/08/26 12:18:24;;;;;;;11.52;11.23;;;33.30;99.90;;;;;;5140360;27;20279;-81
2022/08/26 12:20:54;;;;;;;11.90;11.50;;;32.90;99.90;;;;;;5138316;28;20292;-80
2022/08/26 12:23:25;;;;;;;12.02;11.63;;;32.60;99.90;;;;;;5136059;28;20237;-81
2022/08/26 12:26:12;;;;;;;12.07;11.68;;;32.40;99.90;;;;;;5138969;28;20235;-80
2022/08/26 12:28:48;;;;;;;12.00;11.60;;;32.40;99.90;;;;;;5139717;28;20223;-79
2022/08/26 12:31:27;;;;;;;11.82;11.43;;;32.30;99.90;;;;;;5138716;28;20251;-81
2022/08/26 12:34:04;;;;;;;11.50;11.20;;;32.40;99.90;;;;;;5139209;28;20237;-81
2022/08/26 12:36:36;;;;;;;11.80;11.40;;;32.30;99.90;;;;;;5129127;28;20216;-80
2022/08/26 12:39:14;;;;;;;12.18;11.77;;;32.30;99.90;;;;;;5124076;28;20217;-82
2022/08/26 12:41:51;;;;;;;12.05;11.65;;;32.50;99.90;;;;;;5124205;27;20781;-81
2022/08/26 12:44:48;;;;;;;12.15;11.75;;;32.70;99.90;;;;;;5123826;28;20240;-81
2022/08/26 12:47:27;;;;;;;11.95;11.55;;;33.10;99.90;;;;;;5089002;28;20217;-80
2022/08/26 12:50:06;;;;;;;11.40;11.10;;;33.50;99.90;;;;;;5124516;27;20216;-80
2022/08/26 12:52:43;;;;;;;11.55;11.23;;;33.40;99.90;;;;;;5124101;28;20327;-81
2022/08/26 12:55:24;;;;;;;11.10;10.80;;;33.20;99.90;;;;;;5123036;28;20235;-80
2022/08/26 12:58:14;;;;;;;11.43;11.13;;;32.90;99.90;;;;;;5123896;28;20231;-81
2022/08/26 13:00:47;;;;;;;11.70;11.35;;;32.70;99.90;;;;;;5123083;27;20229;-80
2022/08/26 13:03:43;;;;;;;11.30;11.00;;;32.50;99.90;;;;;;5123298;27;20236;-80
2022/08/26 13:06:28;;;;;;;11.52;11.23;;;32.40;99.90;;;;;;5122748;28;20247;-81
2022/08/26 13:08:58;;;;;;;11.40;11.10;;;32.40;99.90;;;;;;5123639;28;20252;-80
2022/08/26 13:11:29;;;;;;;11.40;11.10;;;32.40;99.90;;;;;;5123333;28;20251;-81
2022/08/26 13:14:00;;;;;;;11.10;10.80;;;32.50;99.90;;;;;;5123731;28;20233;-80
2022/08/26 13:16:28;;;;;;;11.50;11.20;;;32.60;99.90;;;;;;5123660;28;20319;-81
2022/08/26 13:18:59;;;;;;;11.80;11.40;;;32.80;99.90;;;;;;5126041;28;20337;-81
2022/08/26 13:21:34;;;;;;;11.93;11.52;;;32.90;99.90;;;;;;5140735;27;20201;-81
2022/08/26 13:24:06;;;;;;;11.82;11.43;;;33.00;99.90;;;;;;5140810;27;20247;-81
2022/08/26 13:26:33;;;;;;;12.10;11.70;;;33.30;99.90;;;;;;5137202;27;20237;-82
2022/08/26 13:29:03;;;;;;;11.82;11.43;;;33.70;99.90;;;;;;5127623;28;20286;-81
2022/08/26 13:31:33;;;;;;;11.82;11.43;;;34.30;99.90;;;;;;5126600;28;20295;-81
2022/08/26 13:34:02;;;;;;;11.40;11.10;;;34.80;99.90;;;;;;5125561;27;20236;-81
2022/08/26 13:36:32;;;;;;;11.27;10.98;;;34.90;99.90;;;;;;5124831;27;20232;-81
2022/08/26 13:39:00;;;;;;;11.13;10.82;;;34.90;99.90;;;;;;5125041;27;20229;-81
2022/08/26 13:41:30;;;;;;;11.40;11.10;;;34.20;99.90;;;;;;5124728;28;20288;-81
2022/08/26 13:43:59;;;;;;;11.20;10.90;;;33.80;99.90;;;;;;5123711;28;20259;-81
2022/08/26 13:46:29;;;;;;;11.35;11.05;;;33.70;99.90;;;;;;5124190;28;20264;-81
2022/08/26 13:48:58;;;;;;;11.35;11.05;;;33.40;99.90;;;;;;5127108;28;20243;-81
2022/08/26 13:51:27;;;;;;;11.70;11.30;;;31.90;99.90;;;;;;5130919;27;20232;-80
2022/08/26 13:54:03;;;;;;;11.70;11.30;;;30.00;99.90;;;;;;5140943;27;20225;-81
2022/08/26 13:56:34;;;;;;;11.82;11.43;;;28.50;99.90;;;;;;5140673;27;20221;-80
2022/08/26 13:59:05;;;;;;;11.40;11.10;;;27.80;99.90;;;;;;5141258;27;20247;-81
2022/08/26 14:01:34;;;;;;;11.38;11.07;;;27.10;99.90;;;;;;5140470;27;20209;-80
2022/08/26 14:04:04;;;;;;;10.68;10.38;;;27.00;99.90;;;;;;5139512;27;20236;-83
2022/08/26 14:06:34;;;;;;;10.00;9.70;;;25.20;99.90;;;;;;5141160;27;20221;-83
2022/08/26 14:09:05;;;;;;;8.80;8.60;;;22.90;99.90;;;;;;5141641;27;20228;-83
2022/08/26 14:11:33;;;;;;;8.65;8.45;;;21.80;99.90;;;;;;5141674;27;20244;-85
2022/08/26 14:14:02;;;;;;;10.20;9.90;;;20.70;99.90;;;;;;5141371;27;20256;-86
2022/08/26 14:16:33;;;;;;;10.30;10.00;;;20.60;99.90;;;;;;5141410;27;20223;-86
2022/08/26 14:19:02;;;;;;;10.23;9.93;;;20.10;99.90;;;;;;5141387;27;20224;-86
2022/08/26 14:21:32;;;;;;;10.63;10.32;;;19.80;99.90;;;;;;5141525;27;20230;-85
2022/08/26 14:24:00;;;;;;;10.70;10.40;;;19.80;99.90;;;;;;5141467;27;20225;-85
2022/08/26 14:26:31;;;;;;;10.30;10.00;;;19.80;99.90;;;;;;5141332;27;20217;-85
2022/08/26 14:28:59;;;;;;;10.35;10.05;;;20.00;99.90;;;;;;5141335;27;20225;-86
2022/08/26 14:31:27;;;;;;;10.52;10.23;;;19.90;99.90;;;;;;5141312;27;20224;-85
2022/08/26 14:33:59;;;;;;;10.68;10.38;;;19.50;99.90;;;;;;5139640;27;20239;-85
2022/08/26 14:36:30;;;;;;;10.75;10.43;;;19.00;99.90;;;;;;5133754;28;20378;-85
2022/08/26 14:39:01;;;;;;;10.50;10.20;;;18.70;99.90;;;;;;5129414;27;20237;-85
2022/08/26 14:41:37;;;;;;;10.65;10.35;;;18.60;99.90;;;;;;5128028;28;20319;-84
2022/08/26 14:44:16;;;;;;;10.30;10.00;;;18.60;99.90;;;;;;5129077;28;20240;-84
2022/08/26 14:46:47;;;;;;;10.25;9.95;;;18.60;99.90;;;;;;5129196;28;20232;-85
2022/08/26 14:49:16;;;;;;;10.07;9.77;;;18.60;99.90;;;;;;5130527;27;20267;-84
2022/08/26 14:51:44;;;;;;;10.32;10.02;;;18.70;99.90;;;;;;5139236;27;20209;-83
2022/08/26 14:54:14;;;;;;;10.30;10.00;;;18.70;99.90;;;;;;5132944;28;20320;-84
2022/08/26 14:56:50;;;;;;;10.30;10.00;;;18.70;99.90;;;;;;5131588;28;20232;-84
2022/08/26 14:59:20;;;;;;;9.90;9.60;;;18.70;99.90;;;;;;5135232;28;20323;-83
2022/08/26 15:01:49;;;;;;;10.38;10.07;;;18.70;99.90;;;;;;5135452;28;20247;-84
2022/08/26 15:04:18;;;;;;;10.35;10.05;;;18.70;99.90;;;;;;5129855;27;20248;-84
2022/08/26 15:06:48;;;;;;;10.18;9.88;;;18.70;99.90;;;;;;5128933;27;20256;-84
2022/08/26 15:09:17;;;;;;;10.20;9.90;;;18.70;99.90;;;;;;5128264;28;21109;-84
2022/08/26 15:11:59;;;;;;;9.90;9.60;;;18.70;99.90;;;;;;5130063;28;20277;-84
2022/08/26 15:14:27;;;;;;;10.13;9.82;;;18.70;99.90;;;;;;5138472;27;20298;-84
2022/08/26 15:16:57;;;;;;;10.00;9.70;;;18.70;99.90;;;;;;5135982;28;20239;-85
2022/08/26 15:19:27;;;;;;;10.02;9.73;;;18.60;99.90;;;;;;5132488;28;20255;-84
2022/08/26 15:21:55;;;;;;;10.18;9.88;;;18.70;99.90;;;;;;5129197;27;20224;-84
2022/08/26 15:24:25;;;;;;;10.23;9.93;;;18.70;99.90;;;;;;5130104;27;20241;-84
2022/08/26 15:26:55;;;;;;;10.00;9.70;;;18.70;99.90;;;;;;5127949;28;20224;-84
2022/08/26 15:29:23;;;;;;;9.90;9.60;;;18.80;99.90;;;;;;5127757;27;20220;-84
2022/08/26 15:31:54;;;;;;;9.90;9.60;;;19.00;99.90;;;;;;5128479;28;20235;-84
2022/08/26 15:34:21;;;;;;;9.40;9.10;;;19.20;99.90;;;;;;5126515;28;20256;-83
2022/08/26 15:36:50;;;;;;;9.50;9.20;;;19.30;99.90;;;;;;5126051;27;20310;-83
2022/08/26 15:39:20;;;;;;;9.55;9.25;;;19.30;99.90;;;;;;5126421;27;20285;-83
2022/08/26 15:41:49;;;;;;;9.55;9.25;;;19.40;99.90;;;;;;5125200;28;20209;-83
2022/08/26 15:44:27;;;;;;;9.35;9.05;;;19.40;99.90;;;;;;5125438;27;20233;-83
2022/08/26 15:46:56;;;;;;;9.30;9.00;;;19.40;99.90;;;;;;5129887;27;20232;-83
2022/08/26 15:49:26;;;;;;;9.45;9.15;;;19.40;99.90;;;;;;5125138;28;20315;-83
2022/08/26 15:51:55;;;;;;;9.18;8.88;;;19.50;99.90;;;;;;5128293;27;20225;-83
2022/08/26 15:54:25;;;;;;;9.13;8.82;;;19.50;99.90;;;;;;5128186;28;20228;-82
2022/08/26 15:56:54;;;;;;;9.30;9.00;;;19.60;99.90;;;;;;5128564;28;20236;-83
2022/08/26 15:59:33;;;;;;;9.32;9.02;;;19.60;99.90;;;;;;5128664;28;20252;-82
2022/08/26 16:02:02;;;;;;;9.30;9.00;;;19.60;99.90;;;;;;5128835;28;20229;-84
2022/08/26 16:04:31;;;;;;;9.30;9.00;;;19.60;99.90;;;;;;5128597;28;20790;-83
2022/08/26 16:07:00;;;;;;;9.35;9.05;;;19.60;99.90;;;;;;5128184;27;20259;-84
2022/08/26 16:09:30;;;;;;;9.30;9.00;;;19.60;99.90;;;;;;5129556;28;20229;-82
2022/08/26 16:12:00;;;;;;;9.32;9.02;;;19.60;99.90;;;;;;5129791;27;20232;-83
2022/08/26 16:17:16;;;;;;;9.10;8.80;;;19.50;99.90;;;;;;5125689;28;20221;-83
2022/08/26 16:19:45;;;;;;;9.45;9.15;;;19.50;99.90;;;;;;5127377;28;20324;-83
2022/08/26 16:22:15;;;;;;;9.30;9.00;;;19.50;99.90;;;;;;5127163;28;20245;-83
2022/08/26 16:24:44;;;;;;;9.23;8.93;;;19.50;99.90;;;;;;5126710;28;20247;-83
2022/08/26 16:27:14;;;;;;;9.57;9.27;;;19.50;99.90;;;;;;5128388;27;20320;-82
2022/08/26 16:32:30;;;;;;;9.30;9.00;;;19.50;99.90;;;;;;5128515;27;20229;-84
2022/08/26 16:35:04;;;;;;;9.35;9.05;;;19.50;99.90;;;;;;5127465;28;20292;-82
2022/08/26 16:37:31;;;;;;;9.50;9.20;;;19.50;99.90;;;;;;5128606;27;20288;-83
2022/08/26 16:40:00;;;;;;;9.50;9.20;;;19.50;99.90;;;;;;5129881;28;20321;-82
2022/08/26 16:42:30;;;;;;;9.77;9.48;;;19.50;99.90;;;;;;5128176;28;20225;-82
2022/08/26 16:45:10;;;;;;;9.10;8.80;;;19.50;99.90;;;;;;5128419;28;20243;-82
2022/08/26 16:47:38;;;;;;;9.40;9.10;;;19.40;99.90;;;;;;5128507;28;20251;-82
2022/08/26 16:50:08;;;;;;;9.60;9.30;;;19.40;99.90;;;;;;5129225;27;20233;-82
2022/08/26 16:52:37;;;;;;;9.20;8.90;;;19.40;99.90;;;;;;5128646;27;20290;-83
2022/08/26 16:55:06;;;;;;;9.50;9.20;;;19.40;99.90;;;;;;5127805;27;20240;-83
2022/08/26 16:57:35;;;;;;;9.20;8.90;;;19.40;99.90;;;;;;5129303;27;20263;-82
2022/08/26 17:00:14;;;;;;;9.20;8.90;;;19.30;99.90;;;;;;5129442;28;20240;-83
2022/08/26 17:02:43;;;;;;;9.20;8.90;;;19.30;99.90;;;;;;5128666;28;20239;-82
2022/08/26 17:05:13;;;;;;;9.13;8.82;;;19.30;99.90;;;;;;5130066;28;20240;-83
2022/08/26 17:07:42;;;;;;;9.02;8.73;;;19.30;99.90;;;;;;5130403;27;20235;-82
2022/08/26 17:10:12;;;;;;;9.15;8.85;;;19.30;99.90;;;;;;5130188;28;20251;-82
2022/08/26 17:12:41;;;;;;;9.35;9.05;;;19.30;99.90;;;;;;5130066;27;20224;-83
2022/08/26 17:15:14;;;;;;;9.20;8.90;;;19.30;99.90;;;;;;5128647;28;20264;-82
2022/08/26 17:17:42;;;;;;;9.20;8.90;;;19.30;99.90;;;;;;5129902;27;20236;-82
2022/08/26 17:20:20;;;;;;;8.80;8.50;;;19.30;99.90;;;;;;5130669;28;20224;-82
2022/08/26 17:22:50;;;;;;;9.00;8.70;;;19.30;99.90;;;;;;5129706;28;20280;-82
2022/08/26 17:25:28;;;;;;;8.75;8.50;;;19.40;99.90;;;;;;5129529;28;20320;-83
2022/08/26 17:27:55;;;;;;;9.07;8.77;;;19.40;99.90;;;;;;5130677;28;20228;-83
2022/08/26 17:30:25;;;;;;;9.00;8.70;;;19.40;99.90;;;;;;5130396;27;20225;-83
2022/08/26 17:32:54;;;;;;;8.88;8.60;;;19.30;99.90;;;;;;5129992;28;20298;-81
2022/08/26 17:35:24;;;;;;;9.18;8.88;;;19.30;99.90;;;;;;5129250;28;20233;-82
2022/08/26 17:37:54;;;;;;;9.10;8.80;;;19.20;99.90;;;;;;5130255;27;20225;-82
2022/08/26 17:40:33;;;;;;;9.13;8.82;;;19.30;99.90;;;;;;5130285;28;20212;-83
2022/08/26 17:43:01;;;;;;;9.20;8.90;;;19.30;99.90;;;;;;5129388;27;20213;-83
2022/08/26 17:45:32;;;;;;;8.98;8.68;;;19.30;99.90;;;;;;5130261;28;20255;-83
2022/08/26 17:48:00;;;;;;;9.40;9.10;;;19.40;99.90;;;;;;5128486;27;20240;-83
2022/08/26 17:50:29;;;;;;;9.35;9.05;;;19.50;99.90;;;;;;5135932;28;20231;-82
2022/08/26 17:52:58;;;;;;;9.13;8.82;;;19.50;99.90;;;;;;5135546;27;20221;-81
2022/08/26 17:55:28;;;;;;;9.10;8.80;;;19.60;99.90;;;;;;5132371;28;20289;-82
2022/08/26 17:57:58;;;;;;;9.05;8.75;;;19.60;99.90;;;;;;5129083;28;20288;-82
2022/08/26 18:00:26;;;;;;;9.10;8.80;;;19.60;99.90;;;;;;5127879;27;20262;-83
2022/08/26 18:02:58;;;;;;;9.10;8.80;;;19.40;99.90;;;;;;5127460;27;20232;-82
2022/08/26 18:05:26;;;;;;;9.07;8.77;;;19.30;99.90;;;;;;5126519;28;20228;-83
2022/08/26 18:07:56;;;;;;;9.25;8.95;;;19.30;99.90;;;;;;5126862;28;20262;-83
2022/08/26 18:10:27;;;;;;;9.18;8.88;;;19.20;99.90;;;;;;5132498;27;20220;-83
2022/08/26 18:12:55;;;;;;;9.20;8.90;;;19.20;99.90;;;;;;5131955;27;20243;-83
2022/08/26 18:15:23;;;;;;;9.65;9.35;;;19.10;99.90;;;;;;5134239;28;20233;-84
2022/08/26 18:17:53;;;;;;;9.50;9.20;;;19.20;99.90;;;;;;5132284;28;20256;-84
2022/08/26 18:20:24;;;;;;;9.30;9.00;;;19.20;99.90;;;;;;5128747;28;20233;-82